createdAt,value
2018-10-06T00:01:43.408Z,3.0
2018-10-06T00:13:43.840Z,3.0
2018-10-06T00:14:44.376Z,3.0
2018-10-06T00:15:42.663Z,2.8
2018-10-06T00:16:44.377Z,2.9
2018-10-06T00:17:44.701Z,2.7
2018-10-06T00:18:42.195Z,3.0
2018-10-06T00:19:42.618Z,2.8
2018-10-06T00:20:43.923Z,2.9
2018-10-06T00:21:43.779Z,2.8
2018-10-06T00:22:43.239Z,2.8
2018-10-06T00:23:55.209Z,2.9
2018-10-06T00:24:42.571Z,3.0
2018-10-06T00:25:43.172Z,3.1
2018-10-06T00:26:42.971Z,2.9
2018-10-06T00:27:43.363Z,2.6
2018-10-06T00:28:42.389Z,2.7
2018-10-06T00:29:42.199Z,2.7
2018-10-06T00:30:42.601Z,2.8
2018-10-06T00:31:42.167Z,2.9
2018-10-06T00:32:43.001Z,3.0
2018-10-06T00:33:43.261Z,2.9
2018-10-06T00:34:42.921Z,2.8
2018-10-06T00:35:44.754Z,2.8
2018-10-06T00:36:42.880Z,2.7
2018-10-06T00:37:42.391Z,2.6
2018-10-06T00:38:42.666Z,2.5
2018-10-06T00:39:43.093Z,2.8
2018-10-06T00:40:43.952Z,2.6
2018-10-06T00:41:43.040Z,2.7
2018-10-06T00:42:44.631Z,2.8
2018-10-06T00:43:45.446Z,3.0
2018-10-06T00:44:44.563Z,2.7
2018-10-06T00:45:43.852Z,2.9
2018-10-06T00:46:42.658Z,2.8
2018-10-06T00:47:45.367Z,2.7
2018-10-06T00:48:44.264Z,2.8
2018-10-06T00:49:44.124Z,2.8
2018-10-06T00:50:43.927Z,2.7
2018-10-06T00:51:43.215Z,2.8
2018-10-06T00:52:43.278Z,2.7
2018-10-06T00:53:43.012Z,2.7
2018-10-06T00:54:42.283Z,2.8
2018-10-06T00:55:42.722Z,2.9
2018-10-06T00:56:42.656Z,2.9
2018-10-06T00:57:45.869Z,2.6
2018-10-06T00:59:42.817Z,2.8
2018-10-06T01:00:42.283Z,2.7
2018-10-06T01:01:43.723Z,2.7
2018-10-06T01:02:44.582Z,2.8
2018-10-06T01:03:43.657Z,2.7
2018-10-06T01:04:43.481Z,2.7
2018-10-06T01:05:42.858Z,2.9
2018-10-06T01:06:43.990Z,2.7
2018-10-06T01:08:42.463Z,2.7
2018-10-06T01:09:43.714Z,2.8
2018-10-06T01:10:42.952Z,2.7
2018-10-06T01:11:44.169Z,2.7
2018-10-06T01:12:43.923Z,2.8
2018-10-06T01:13:42.737Z,2.7
2018-10-06T01:14:42.664Z,2.9
2018-10-06T01:15:44.138Z,2.6
2018-10-06T01:16:42.778Z,2.3
2018-10-06T01:17:42.481Z,2.6
2018-10-06T01:18:43.609Z,2.7
2018-10-06T01:19:43.856Z,2.5
2018-10-06T01:20:42.861Z,2.8
2018-10-06T01:21:42.873Z,2.8
2018-10-06T01:22:43.303Z,2.6
2018-10-06T01:23:42.719Z,2.6
2018-10-06T01:24:43.971Z,2.5
2018-10-06T01:25:45.014Z,2.7
2018-10-06T01:26:43.069Z,2.8
2018-10-06T01:27:42.677Z,2.6
2018-10-06T01:28:42.758Z,2.9
2018-10-06T01:34:05.713Z,2.7
2018-10-06T01:34:15.262Z,2.5
2018-10-06T01:35:15.743Z,2.8
2018-10-06T01:36:15.323Z,2.6
2018-10-06T01:37:14.783Z,2.6
2018-10-06T01:38:15.739Z,2.7
2018-10-06T01:39:16.243Z,2.6
2018-10-06T01:40:14.675Z,2.6
2018-10-06T01:41:14.478Z,2.6
2018-10-06T01:42:15.267Z,2.7
2018-10-06T01:43:14.987Z,2.7
2018-10-06T01:44:15.069Z,2.5
2018-10-06T01:45:14.751Z,2.5
2018-10-06T01:46:14.951Z,2.7
2018-10-06T01:47:15.078Z,2.7
2018-10-06T01:48:14.577Z,2.7
2018-10-06T01:49:14.729Z,2.8
2018-10-06T01:50:14.999Z,2.8
2018-10-06T01:51:14.985Z,2.7
2018-10-06T01:52:15.099Z,2.6
2018-10-06T01:53:15.009Z,2.4
2018-10-06T01:54:15.068Z,2.5
2018-10-06T01:55:15.563Z,2.7
2018-10-06T01:56:15.002Z,2.8
2018-10-06T01:57:14.587Z,2.6
2018-10-06T01:58:14.789Z,2.5
2018-10-06T01:59:15.650Z,2.5
2018-10-06T02:00:15.004Z,2.6
2018-10-06T02:01:15.184Z,2.5
2018-10-06T02:02:14.548Z,2.5
2018-10-06T02:03:14.958Z,2.3
2018-10-06T02:04:14.758Z,2.5
2018-10-06T02:05:15.710Z,2.3
2018-10-06T02:06:15.435Z,2.6
2018-10-06T02:07:14.743Z,2.4
2018-10-06T02:08:15.037Z,2.3
2018-10-06T02:09:25.139Z,2.5
2018-10-06T02:10:14.553Z,2.6
2018-10-06T02:11:15.309Z,2.5
2018-10-06T02:12:14.796Z,2.4
2018-10-06T02:13:15.038Z,2.5
2018-10-06T02:14:14.892Z,2.8
2018-10-06T02:15:14.601Z,2.4
2018-10-06T02:16:15.049Z,2.5
2018-10-06T02:17:15.041Z,2.7
2018-10-06T02:18:14.544Z,2.4
2018-10-06T02:19:15.218Z,2.7
2018-10-06T02:20:15.095Z,2.6
2018-10-06T02:21:15.021Z,2.5
2018-10-06T02:22:14.590Z,2.7
2018-10-06T02:23:15.671Z,2.5
2018-10-06T02:24:14.806Z,2.5
2018-10-06T02:25:14.724Z,2.6
2018-10-06T02:26:15.727Z,2.4
2018-10-06T02:27:15.056Z,2.3
2018-10-06T02:28:14.595Z,2.5
2018-10-06T02:29:15.264Z,2.5
2018-10-06T02:30:14.908Z,2.4
2018-10-06T02:31:16.290Z,2.6
2018-10-06T02:32:16.995Z,2.6
2018-10-06T02:33:15.304Z,2.6
2018-10-06T02:34:15.159Z,2.6
2018-10-06T02:35:17.877Z,2.7
2018-10-06T02:36:16.915Z,2.6
2018-10-06T02:37:14.676Z,2.5
2018-10-06T02:38:14.869Z,2.6
2018-10-06T02:39:14.624Z,2.5
2018-10-06T02:40:14.873Z,2.4
2018-10-06T02:41:14.856Z,2.5
2018-10-06T02:42:15.034Z,2.8
2018-10-06T02:43:14.651Z,2.6
2018-10-06T02:44:15.252Z,2.5
2018-10-06T02:45:15.006Z,2.2
2018-10-06T02:46:14.837Z,2.4
2018-10-06T02:47:16.546Z,2.4
2018-10-06T02:48:15.040Z,2.6
2018-10-06T02:49:14.682Z,2.5
2018-10-06T02:50:15.432Z,2.7
2018-10-06T02:51:14.849Z,2.6
2018-10-06T02:52:15.097Z,2.6
2018-10-06T02:53:15.164Z,2.5
2018-10-06T02:54:15.364Z,2.5
2018-10-06T02:55:14.874Z,2.6
2018-10-06T02:56:14.843Z,2.4
2018-10-06T02:57:15.174Z,2.8
2018-10-06T02:58:14.899Z,2.4
2018-10-06T02:59:15.272Z,2.3
2018-10-06T03:00:15.119Z,2.5
2018-10-06T03:01:14.693Z,2.3
2018-10-06T03:02:14.641Z,2.3
2018-10-06T03:03:16.455Z,2.2
2018-10-06T03:15:07.372Z,2.4
2018-10-06T03:15:16.775Z,2.4
2018-10-06T03:16:16.385Z,2.6
2018-10-06T03:17:16.899Z,2.5
2018-10-06T03:18:16.267Z,2.5
2018-10-06T03:19:16.179Z,2.4
2018-10-06T03:20:16.286Z,2.4
2018-10-06T03:21:17.209Z,2.5
2018-10-06T03:22:16.140Z,2.4
2018-10-06T03:24:29.236Z,2.3
2018-10-06T03:25:29.042Z,2.3
2018-10-06T03:26:28.919Z,2.5
2018-10-06T03:27:28.813Z,2.3
2018-10-06T03:28:30.303Z,2.4
2018-10-06T03:29:29.198Z,2.5
2018-10-06T03:30:29.328Z,2.6
2018-10-06T03:31:29.404Z,2.2
2018-10-06T03:32:29.999Z,2.2
2018-10-06T03:33:29.310Z,2.2
2018-10-06T03:34:30.845Z,2.1
2018-10-06T03:35:28.852Z,2.5
2018-10-06T03:36:29.253Z,2.3
2018-10-06T03:37:29.142Z,2.7
2018-10-06T03:38:29.742Z,2.1
2018-10-06T03:39:29.419Z,2.5
2018-10-06T03:40:29.000Z,2.6
2018-10-06T03:41:29.998Z,2.4
2018-10-06T03:42:30.365Z,2.5
2018-10-06T03:43:29.245Z,2.6
2018-10-06T03:44:31.469Z,2.5
2018-10-06T03:45:30.366Z,2.4
2018-10-06T03:46:30.933Z,2.7
2018-10-06T03:47:29.081Z,2.4
2018-10-06T03:48:28.935Z,2.5
2018-10-06T03:49:29.523Z,2.4
2018-10-06T03:50:29.363Z,2.2
2018-10-06T03:51:28.870Z,2.5
2018-10-06T03:52:28.837Z,2.5
2018-10-06T03:53:28.831Z,2.4
2018-10-06T03:54:29.301Z,2.5
2018-10-06T03:55:30.645Z,2.3
2018-10-06T03:56:29.146Z,2.5
2018-10-06T03:57:29.555Z,2.3
2018-10-06T03:58:29.055Z,2.4
2018-10-06T03:59:29.589Z,2.4
2018-10-06T04:00:29.100Z,2.4
2018-10-06T04:01:29.278Z,2.4
2018-10-06T04:02:29.409Z,2.5
2018-10-06T04:03:28.889Z,2.5
2018-10-06T04:04:29.136Z,2.4
2018-10-06T04:05:29.094Z,2.4
2018-10-06T04:06:30.060Z,2.4
2018-10-06T04:07:29.091Z,2.4
2018-10-06T04:08:29.040Z,2.5
2018-10-06T04:09:29.083Z,2.5
2018-10-06T04:10:30.116Z,2.1
2018-10-06T04:11:28.953Z,2.3
2018-10-06T04:22:25.870Z,2.4
2018-10-06T04:23:22.822Z,2.4
2018-10-06T04:24:22.905Z,2.5
2018-10-06T04:25:24.106Z,2.3
2018-10-06T04:26:22.284Z,2.3
2018-10-06T04:27:22.749Z,2.3
2018-10-06T04:28:22.851Z,2.2
2018-10-06T04:29:22.576Z,2.3
2018-10-06T04:30:22.762Z,2.4
2018-10-06T04:31:22.855Z,2.4
2018-10-06T04:32:22.756Z,2.3
2018-10-06T04:33:22.877Z,2.5
2018-10-06T04:34:22.604Z,2.4
2018-10-06T04:35:22.636Z,2.2
2018-10-06T04:36:23.171Z,2.3
2018-10-06T04:37:22.406Z,2.2
2018-10-06T04:38:22.873Z,2.5
2018-10-06T04:39:22.872Z,2.4
2018-10-06T04:40:23.533Z,2.3
2018-10-06T04:41:22.568Z,2.4
2018-10-06T04:42:22.387Z,2.4
2018-10-06T04:43:22.448Z,2.1
2018-10-06T04:44:22.595Z,2.4
2018-10-06T04:45:23.408Z,2.4
2018-10-06T04:46:22.349Z,2.3
2018-10-06T04:47:22.909Z,2.3
2018-10-06T04:48:22.364Z,2.4
2018-10-06T04:49:22.643Z,2.2
2018-10-06T04:50:22.415Z,2.2
2018-10-06T04:51:22.890Z,2.4
2018-10-06T04:52:22.829Z,2.2
2018-10-06T04:53:23.540Z,2.4
2018-10-06T04:54:22.772Z,2.4
2018-10-06T04:55:22.444Z,2.4
2018-10-06T04:56:22.565Z,2.4
2018-10-06T04:57:22.610Z,2.1
2018-10-06T05:06:33.161Z,2.3
2018-10-06T05:06:42.403Z,2.3
2018-10-06T05:07:42.289Z,2.5
2018-10-06T05:08:41.953Z,2.3
2018-10-06T05:09:42.124Z,2.2
2018-10-06T05:10:42.098Z,2.3
2018-10-06T05:11:43.618Z,2.5
2018-10-06T05:12:42.279Z,2.2
2018-10-06T05:13:42.105Z,2.2
2018-10-06T05:14:41.936Z,2.2
2018-10-06T05:15:42.383Z,2.3
2018-10-06T05:16:43.038Z,2.5
2018-10-06T05:17:42.112Z,2.3
2018-10-06T05:18:41.941Z,2.3
2018-10-06T05:19:42.849Z,2.4
2018-10-06T05:20:42.335Z,2.2
2018-10-06T05:21:41.975Z,2.3
2018-10-06T05:22:42.114Z,2.2
2018-10-06T05:23:42.226Z,2.3
2018-10-06T05:24:43.171Z,2.2
2018-10-06T05:25:42.472Z,2.2
2018-10-06T05:26:42.360Z,2.2
2018-10-06T05:27:42.424Z,2.2
2018-10-06T05:28:42.177Z,2.1
2018-10-06T05:29:42.917Z,2.4
2018-10-06T05:30:43.340Z,2.3
2018-10-06T05:31:43.746Z,2.3
2018-10-06T05:32:42.819Z,2.1
2018-10-06T05:33:42.166Z,2.2
2018-10-06T05:34:42.724Z,2.1
2018-10-06T05:35:41.967Z,2.2
2018-10-06T05:36:42.427Z,2.1
2018-10-06T05:37:42.166Z,2.2
2018-10-06T05:38:42.405Z,2.1
2018-10-06T05:39:43.630Z,2.0
2018-10-06T05:40:42.467Z,2.2
2018-10-06T05:41:43.757Z,2.3
2018-10-06T05:42:41.949Z,2.1
2018-10-06T05:43:42.373Z,2.4
2018-10-06T05:44:44.002Z,2.2
2018-10-06T05:45:43.985Z,2.2
2018-10-06T05:46:42.023Z,1.9
2018-10-06T05:47:42.326Z,2.2
2018-10-06T05:48:43.630Z,2.3
2018-10-06T05:49:42.444Z,2.0
2018-10-06T05:50:42.012Z,2.1
2018-10-06T05:51:42.460Z,2.0
2018-10-06T05:52:42.353Z,2.1
2018-10-06T05:53:42.141Z,2.0
2018-10-06T05:54:42.431Z,2.1
2018-10-06T05:55:42.553Z,2.0
2018-10-06T05:56:42.628Z,2.2
2018-10-06T05:57:41.966Z,2.2
2018-10-06T05:58:42.085Z,2.1
2018-10-06T05:59:42.129Z,2.0
2018-10-06T06:00:42.351Z,2.0
2018-10-06T06:01:42.220Z,2.0
2018-10-06T06:02:41.940Z,2.0
2018-10-06T06:03:42.461Z,2.2
2018-10-06T06:11:15.669Z,2.2
2018-10-06T06:11:29.134Z,2.1
2018-10-06T06:12:30.730Z,2.1
2018-10-06T06:13:30.198Z,2.3
2018-10-06T06:14:30.060Z,2.2
2018-10-06T06:15:29.707Z,2.2
2018-10-06T06:16:30.133Z,2.2
2018-10-06T06:17:29.853Z,2.3
2018-10-06T06:18:29.716Z,2.2
2018-10-06T06:20:42.430Z,2.3
2018-10-06T06:21:42.654Z,2.3
2018-10-06T06:22:42.265Z,2.3
2018-10-06T06:23:42.256Z,2.3
2018-10-06T06:24:42.234Z,2.3
2018-10-06T06:25:42.686Z,2.4
2018-10-06T06:26:42.460Z,2.3
2018-10-06T06:27:42.484Z,2.3
2018-10-06T06:28:43.462Z,2.3
2018-10-06T06:29:42.747Z,3.0
2018-10-06T06:30:42.220Z,2.4
2018-10-06T06:31:42.306Z,2.7
2018-10-06T06:32:42.883Z,2.6
2018-10-06T06:33:43.266Z,2.6
2018-10-06T06:34:42.775Z,2.7
2018-10-06T06:35:42.841Z,2.5
2018-10-06T06:36:42.518Z,2.9
2018-10-06T06:37:42.426Z,2.9
2018-10-06T06:38:42.526Z,3.4
2018-10-06T06:39:45.296Z,3.1
2018-10-06T06:40:58.566Z,3.4
2018-10-06T06:41:42.243Z,3.0
2018-10-06T06:42:47.491Z,3.3
2018-10-06T06:43:42.632Z,3.2
2018-10-06T06:44:43.341Z,3.0
2018-10-06T06:45:43.907Z,3.1
2018-10-06T06:46:43.070Z,2.9
2018-10-06T06:47:43.929Z,3.1
2018-10-06T06:48:42.237Z,3.1
2018-10-06T06:50:43.416Z,3.0
2018-10-06T06:52:43.370Z,3.1
2018-10-06T06:54:43.040Z,3.0
2018-10-06T06:55:43.743Z,2.9
2018-10-06T06:56:44.785Z,3.0
2018-10-06T06:57:45.700Z,2.9
2018-10-06T06:58:42.745Z,2.9
2018-10-06T06:59:50.782Z,3.0
2018-10-06T07:00:54.256Z,3.0
2018-10-06T07:01:46.800Z,3.1
2018-10-06T07:02:43.181Z,3.2
2018-10-06T07:03:45.000Z,3.1
2018-10-06T07:04:46.643Z,2.9
2018-10-06T07:05:52.258Z,3.2
2018-10-06T07:06:44.466Z,3.4
2018-10-06T07:07:47.119Z,3.1
2018-10-06T07:08:44.308Z,3.3
2018-10-06T07:09:58.569Z,3.3
2018-10-06T07:10:50.643Z,3.6
2018-10-06T07:11:43.961Z,3.2
2018-10-06T07:12:47.524Z,3.3
2018-10-06T07:14:42.993Z,3.3
2018-10-06T07:15:46.502Z,3.5
2018-10-06T07:16:49.653Z,3.2
2018-10-06T07:17:47.897Z,3.5
2018-10-06T07:19:45.219Z,3.3
2018-10-06T07:20:43.446Z,3.3
2018-10-06T07:22:46.916Z,3.4
2018-10-06T07:23:43.987Z,3.7
2018-10-06T07:24:43.523Z,3.7
2018-10-06T07:25:45.666Z,3.9
2018-10-06T07:26:55.827Z,3.9
2018-10-06T07:27:46.606Z,3.8
2018-10-06T07:28:44.123Z,4.0
2018-10-06T07:29:48.279Z,3.7
2018-10-06T07:30:45.967Z,3.5
2018-10-06T07:31:48.761Z,3.9
2018-10-06T07:32:52.566Z,3.6
2018-10-06T07:33:45.674Z,3.9
2018-10-06T07:34:43.882Z,5.7
2018-10-06T07:35:45.938Z,6.8
2018-10-06T07:36:45.142Z,6.7
2018-10-06T07:40:42.373Z,7.1
2018-10-06T07:42:42.403Z,7.0
2018-10-06T07:43:44.886Z,7.1
2018-10-06T07:44:43.522Z,7.0
2018-10-06T07:45:45.808Z,6.2
2018-10-06T07:46:44.210Z,6.3
2018-10-06T07:47:44.113Z,6.1
2018-10-06T07:48:47.505Z,5.7
2018-10-06T07:49:44.580Z,5.5
2018-10-06T07:50:44.971Z,4.8
2018-10-06T07:51:44.319Z,4.8
2018-10-06T07:52:44.487Z,4.4
2018-10-06T07:53:44.191Z,5.1
2018-10-06T07:54:46.065Z,4.8
2018-10-06T07:55:44.455Z,4.3
2018-10-06T07:56:44.371Z,4.4
2018-10-06T07:57:53.192Z,4.1
2018-10-06T07:58:42.854Z,4.2
2018-10-06T07:59:43.723Z,4.4
2018-10-06T08:00:47.481Z,4.2
2018-10-06T08:01:43.410Z,3.8
2018-10-06T08:02:42.959Z,4.1
2018-10-06T08:03:44.428Z,4.0
2018-10-06T08:04:42.980Z,4.1
2018-10-06T08:05:45.644Z,4.3
2018-10-06T08:07:42.916Z,3.9
2018-10-06T08:09:56.066Z,4.3
2018-10-06T08:10:55.652Z,4.1
2018-10-06T08:11:56.679Z,3.8
2018-10-06T08:12:56.013Z,3.7
2018-10-06T08:13:55.884Z,3.9
2018-10-06T08:14:56.038Z,4.1
2018-10-06T08:15:56.258Z,3.9
2018-10-06T08:16:55.949Z,4.0
2018-10-06T08:17:56.167Z,4.2
2018-10-06T08:18:56.106Z,3.9
2018-10-06T08:20:24.545Z,3.9
2018-10-06T08:20:56.094Z,4.0
2018-10-06T08:21:56.228Z,3.4
2018-10-06T08:22:56.910Z,3.9
2018-10-06T08:23:55.853Z,3.8
2018-10-06T08:24:55.889Z,3.9
2018-10-06T08:25:56.167Z,3.8
2018-10-06T08:26:58.907Z,3.9
2018-10-06T08:27:56.157Z,3.9
2018-10-06T08:28:55.862Z,3.9
2018-10-06T08:29:57.327Z,3.9
2018-10-06T08:30:56.650Z,3.7
2018-10-06T08:31:58.759Z,3.7
2018-10-06T08:33:06.653Z,3.6
2018-10-06T08:34:58.163Z,3.8
2018-10-06T08:36:02.881Z,3.7
2018-10-06T08:37:00.044Z,3.8
2018-10-06T08:38:04.943Z,3.8
2018-10-06T08:40:56.184Z,3.9
2018-10-06T08:41:56.198Z,4.0
2018-10-06T08:42:55.786Z,4.6
2018-10-06T08:43:56.246Z,4.7
2018-10-06T08:44:55.862Z,4.3
2018-10-06T08:45:56.038Z,3.8
2018-10-06T08:46:55.997Z,3.9
2018-10-06T08:47:55.936Z,4.0
2018-10-06T08:48:56.136Z,3.9
2018-10-06T08:49:56.897Z,3.8
2018-10-06T08:50:56.289Z,4.0
2018-10-06T08:51:55.867Z,3.8
2018-10-06T08:52:56.170Z,3.9
2018-10-06T08:53:55.702Z,4.1
2018-10-06T08:54:55.977Z,3.9
2018-10-06T08:55:56.155Z,4.0
2018-10-06T08:56:55.668Z,3.7
2018-10-06T08:57:55.954Z,3.7
2018-10-06T08:58:55.901Z,3.5
2018-10-06T08:59:58.569Z,3.9
2018-10-06T09:00:55.950Z,3.6
2018-10-06T09:01:56.276Z,3.7
2018-10-06T09:02:56.219Z,3.2
2018-10-06T09:03:56.179Z,3.5
2018-10-06T09:04:56.230Z,3.3
2018-10-06T09:05:55.930Z,3.5
2018-10-06T09:06:56.296Z,3.7
2018-10-06T09:07:55.939Z,3.6
2018-10-06T09:08:55.946Z,3.6
2018-10-06T09:10:24.551Z,3.6
2018-10-06T09:10:56.226Z,3.5
2018-10-06T09:11:56.229Z,3.4
2018-10-06T09:12:56.195Z,3.7
2018-10-06T09:13:56.262Z,3.5
2018-10-06T09:14:56.233Z,3.7
2018-10-06T09:15:56.238Z,3.2
2018-10-06T09:16:55.688Z,3.4
2018-10-06T09:17:55.843Z,3.7
2018-10-06T09:18:55.923Z,3.4
2018-10-06T09:19:55.729Z,3.4
2018-10-06T09:22:08.566Z,3.6
2018-10-06T09:23:08.574Z,3.7
2018-10-06T09:24:08.923Z,3.5
2018-10-06T09:25:08.631Z,3.1
2018-10-06T09:26:08.474Z,3.5
2018-10-06T09:27:08.958Z,3.4
2018-10-06T09:28:08.549Z,3.4
2018-10-06T09:29:08.464Z,3.5
2018-10-06T09:30:08.636Z,3.2
2018-10-06T09:31:09.624Z,3.4
2018-10-06T09:32:08.644Z,3.4
2018-10-06T09:33:08.738Z,3.4
2018-10-06T09:34:10.564Z,3.1
2018-10-06T09:36:10.277Z,3.1
2018-10-06T09:37:08.941Z,3.6
2018-10-06T09:38:08.503Z,3.3
2018-10-06T09:39:08.805Z,3.6
2018-10-06T09:40:08.969Z,3.2
2018-10-06T09:41:09.756Z,3.3
2018-10-06T09:42:09.631Z,3.1
2018-10-06T09:43:08.649Z,3.1
2018-10-06T09:44:08.617Z,3.1
2018-10-06T09:45:08.870Z,3.0
2018-10-06T09:46:08.469Z,3.0
2018-10-06T09:47:08.830Z,3.1
2018-10-06T09:48:08.769Z,3.2
2018-10-06T09:49:08.840Z,3.0
2018-10-06T09:50:09.591Z,3.0
2018-10-06T09:51:09.117Z,3.1
2018-10-06T09:52:08.955Z,3.0
2018-10-06T09:53:08.954Z,2.8
2018-10-06T09:54:08.971Z,3.0
2018-10-06T09:55:08.690Z,3.0
2018-10-06T09:56:08.886Z,2.9
2018-10-06T09:57:08.675Z,2.9
2018-10-06T09:58:08.672Z,2.9
2018-10-06T09:59:08.513Z,2.9
2018-10-06T10:00:09.631Z,2.8
2018-10-06T10:01:08.998Z,2.7
2018-10-06T10:02:08.732Z,2.9
2018-10-06T10:03:08.885Z,3.1
2018-10-06T10:04:08.942Z,2.9
2018-10-06T10:05:08.721Z,2.9
2018-10-06T10:06:08.496Z,3.0
2018-10-06T10:07:08.828Z,2.7
2018-10-06T10:08:08.948Z,2.6
2018-10-06T10:09:08.975Z,2.6
2018-10-06T10:16:42.085Z,2.9
2018-10-06T10:16:50.136Z,2.6
2018-10-06T10:17:50.070Z,3.0
2018-10-06T10:18:50.522Z,2.7
2018-10-06T10:19:50.370Z,2.7
2018-10-06T10:20:50.288Z,2.8
2018-10-06T10:21:50.485Z,2.7
2018-10-06T10:22:50.264Z,2.7
2018-10-06T10:23:49.929Z,2.6
2018-10-06T10:24:50.315Z,2.9
2018-10-06T10:27:03.199Z,2.7
2018-10-06T10:28:03.088Z,2.6
2018-10-06T10:29:02.962Z,2.7
2018-10-06T10:30:02.951Z,2.7
2018-10-06T10:31:02.927Z,2.6
2018-10-06T10:32:02.737Z,2.7
2018-10-06T10:33:03.082Z,2.8
2018-10-06T10:34:02.890Z,2.6
2018-10-06T10:35:02.734Z,2.6
2018-10-06T10:36:03.003Z,2.9
2018-10-06T10:37:19.517Z,2.7
2018-10-06T10:38:03.166Z,2.5
2018-10-06T10:39:03.263Z,2.4
2018-10-06T10:40:02.978Z,2.5
2018-10-06T10:41:03.263Z,2.7
2018-10-06T10:42:03.163Z,2.4
2018-10-06T10:43:03.263Z,2.5
2018-10-06T10:44:03.368Z,2.7
2018-10-06T10:45:02.724Z,2.5
2018-10-06T10:46:02.943Z,2.4
2018-10-06T10:47:03.098Z,2.5
2018-10-06T10:48:02.783Z,2.6
2018-10-06T10:49:02.796Z,2.7
2018-10-06T10:50:02.957Z,2.6
2018-10-06T10:51:03.197Z,2.6
2018-10-06T10:52:03.250Z,2.6
2018-10-06T10:53:03.127Z,2.5
2018-10-06T10:54:02.753Z,2.4
2018-10-06T10:55:03.289Z,2.4
2018-10-06T10:56:03.245Z,2.3
2018-10-06T10:57:02.776Z,2.5
2018-10-06T10:58:03.299Z,2.4
2018-10-06T10:59:03.182Z,2.5
2018-10-06T11:00:03.401Z,2.3
2018-10-06T11:01:03.292Z,2.4
2018-10-06T11:02:02.971Z,2.5
2018-10-06T11:03:02.997Z,2.2
2018-10-06T11:04:02.990Z,2.4
2018-10-06T11:05:03.872Z,2.2
2018-10-06T11:06:03.318Z,2.5
2018-10-06T11:07:03.202Z,2.5
2018-10-06T11:08:02.731Z,2.5
2018-10-06T11:09:03.221Z,2.4
2018-10-06T11:10:02.994Z,2.4
2018-10-06T11:11:03.315Z,2.4
2018-10-06T11:12:03.183Z,2.2
2018-10-06T11:13:02.969Z,2.5
2018-10-06T11:14:02.972Z,2.3
2018-10-06T11:15:04.022Z,2.4
2018-10-06T11:16:02.816Z,2.3
2018-10-06T11:17:03.217Z,2.2
2018-10-06T11:18:03.071Z,2.3
2018-10-06T11:19:02.792Z,2.2
2018-10-06T11:20:03.257Z,2.4
2018-10-06T11:21:03.283Z,2.1
2018-10-06T11:22:02.975Z,2.1
2018-10-06T11:23:02.760Z,2.5
2018-10-06T11:24:03.035Z,2.2
2018-10-06T11:25:02.809Z,2.0
2018-10-06T11:26:02.887Z,2.3
2018-10-06T11:27:03.151Z,2.2
2018-10-06T11:28:02.810Z,2.3
2018-10-06T11:29:02.812Z,2.1
2018-10-06T11:30:03.490Z,2.1
2018-10-06T11:31:03.239Z,2.1
2018-10-06T11:32:03.012Z,2.1
2018-10-06T11:34:02.976Z,2.3
2018-10-06T11:35:02.878Z,2.0
2018-10-06T11:36:03.899Z,2.0
2018-10-06T11:37:02.791Z,2.2
2018-10-06T11:38:03.370Z,2.0
2018-10-06T11:39:03.071Z,2.1
2018-10-06T11:40:03.962Z,2.1
2018-10-06T11:41:03.268Z,2.0
2018-10-06T11:42:03.338Z,2.3
2018-10-06T11:43:02.841Z,2.1
2018-10-06T11:44:03.730Z,2.1
2018-10-06T11:45:03.209Z,2.1
2018-10-06T11:46:03.226Z,2.0
2018-10-06T11:47:02.822Z,2.1
2018-10-06T11:48:03.269Z,2.1
2018-10-06T11:49:03.007Z,2.1
2018-10-06T11:50:03.537Z,2.1
2018-10-06T11:51:03.084Z,2.2
2018-10-06T11:52:03.404Z,2.0
2018-10-06T11:53:02.886Z,1.9
2018-10-06T11:54:02.958Z,2.2
2018-10-06T11:55:03.376Z,2.1
2018-10-06T11:56:03.295Z,1.9
2018-10-06T11:57:03.311Z,2.2
2018-10-06T11:58:02.934Z,2.0
2018-10-06T11:59:02.860Z,1.9
2018-10-06T12:06:36.858Z,1.9
2018-10-06T12:06:50.513Z,2.2
2018-10-06T12:07:51.245Z,2.0
2018-10-06T12:08:51.165Z,1.9
2018-10-06T12:09:51.227Z,1.8
2018-10-06T12:10:50.904Z,2.0
2018-10-06T12:11:50.797Z,2.2
2018-10-06T12:12:51.003Z,2.1
2018-10-06T12:13:50.811Z,1.8
2018-10-06T12:14:51.280Z,2.1
2018-10-06T12:15:51.157Z,1.9
2018-10-06T12:16:50.784Z,1.9
2018-10-06T12:17:50.798Z,1.8
2018-10-06T12:18:51.163Z,2.0
2018-10-06T12:19:51.234Z,2.0
2018-10-06T12:20:51.254Z,1.9
2018-10-06T12:21:51.025Z,1.9
2018-10-06T12:22:51.231Z,2.0
2018-10-06T12:23:53.339Z,2.0
2018-10-06T12:24:51.237Z,1.9
2018-10-06T12:25:51.240Z,2.1
2018-10-06T12:26:51.240Z,2.1
2018-10-06T12:27:51.210Z,1.9
2018-10-06T12:28:50.846Z,1.9
2018-10-06T12:29:51.276Z,2.0
2018-10-06T12:30:51.270Z,1.8
2018-10-06T12:31:51.228Z,2.0
2018-10-06T12:32:51.330Z,1.8
2018-10-06T12:34:03.029Z,2.0
2018-10-06T12:34:51.035Z,1.9
2018-10-06T12:35:51.353Z,2.0
2018-10-06T12:36:51.023Z,1.7
2018-10-06T12:37:51.081Z,2.1
2018-10-06T12:38:50.824Z,2.0
2018-10-06T12:39:51.224Z,2.0
2018-10-06T12:40:51.291Z,1.9
2018-10-06T12:41:50.842Z,1.9
2018-10-06T12:42:51.398Z,1.8
2018-10-06T12:44:43.375Z,2.1
2018-10-06T12:44:51.225Z,1.8
2018-10-06T12:45:51.547Z,1.8
2018-10-06T12:46:51.535Z,2.0
2018-10-06T12:47:51.483Z,2.0
2018-10-06T12:48:51.488Z,1.9
2018-10-06T12:49:51.506Z,1.8
2018-10-06T12:50:51.456Z,1.8
2018-10-06T12:51:51.040Z,1.7
2018-10-06T12:52:51.074Z,1.8
2018-10-06T12:53:51.542Z,1.9
2018-10-06T12:56:04.259Z,2.0
2018-10-06T12:57:04.358Z,1.8
2018-10-06T12:58:04.323Z,1.7
2018-10-06T12:59:04.522Z,1.9
2018-10-06T13:00:04.338Z,1.8
2018-10-06T13:01:04.101Z,1.7
2018-10-06T13:02:04.034Z,1.9
2018-10-06T13:03:04.627Z,1.8
2018-10-06T13:04:04.079Z,1.8
2018-10-06T13:05:04.301Z,1.9
2018-10-06T13:16:01.522Z,1.7
2018-10-06T13:17:02.804Z,1.8
2018-10-06T13:18:02.833Z,1.7
2018-10-06T13:19:02.365Z,1.7
2018-10-06T13:20:02.813Z,1.8
2018-10-06T13:21:02.772Z,1.7
2018-10-06T13:22:02.486Z,1.6
2018-10-06T13:23:02.392Z,1.9
2018-10-06T13:24:02.801Z,1.6
2018-10-06T13:26:15.514Z,1.7
2018-10-06T13:27:15.208Z,1.9
2018-10-06T13:28:15.589Z,1.6
2018-10-06T13:29:15.049Z,1.7
2018-10-06T13:30:15.600Z,1.8
2018-10-06T13:31:15.445Z,1.7
2018-10-06T13:32:15.509Z,1.6
2018-10-06T13:33:15.090Z,1.9
2018-10-06T13:34:15.322Z,1.6
2018-10-06T13:35:15.537Z,1.9
2018-10-06T13:37:07.986Z,1.7
2018-10-06T13:37:15.906Z,1.8
2018-10-06T13:38:16.663Z,1.9
2018-10-06T13:39:15.685Z,1.8
2018-10-06T13:40:16.088Z,1.8
2018-10-06T13:41:15.628Z,1.7
2018-10-06T13:42:16.445Z,1.7
2018-10-06T13:43:16.133Z,1.4
2018-10-06T13:44:16.713Z,1.7
2018-10-06T13:45:15.815Z,1.7
2018-10-06T13:46:16.247Z,1.9
2018-10-06T13:47:15.689Z,1.6
2018-10-06T13:48:16.137Z,1.7
2018-10-06T13:49:15.838Z,1.5
2018-10-06T13:50:16.097Z,1.6
2018-10-06T13:51:15.758Z,1.7
2018-10-06T13:52:15.955Z,1.7
2018-10-06T13:53:15.643Z,1.6
2018-10-06T13:54:16.188Z,1.6
2018-10-06T13:55:44.529Z,1.7
2018-10-06T13:56:15.919Z,1.6
2018-10-06T13:57:16.048Z,1.6
2018-10-06T13:58:16.393Z,1.8
2018-10-06T13:59:16.224Z,1.6
2018-10-06T14:00:16.294Z,1.6
2018-10-06T14:01:15.690Z,1.7
2018-10-06T14:02:16.184Z,1.6
2018-10-06T14:03:16.090Z,1.5
2018-10-06T14:04:15.686Z,1.7
2018-10-06T14:05:15.656Z,1.6
2018-10-06T14:06:18.002Z,1.7
2018-10-06T14:07:15.700Z,1.5
2018-10-06T14:08:16.366Z,1.6
2018-10-06T14:09:16.238Z,1.5
2018-10-06T14:10:15.789Z,1.7
2018-10-06T14:11:15.948Z,1.7
2018-10-06T14:12:16.250Z,1.6
2018-10-06T14:13:16.284Z,1.6
2018-10-06T14:14:15.945Z,1.7
2018-10-06T14:15:16.211Z,1.6
2018-10-06T14:16:31.167Z,1.7
2018-10-06T14:17:15.834Z,1.6
2018-10-06T14:18:15.842Z,1.4
2018-10-06T14:19:16.220Z,1.6
2018-10-06T14:20:16.267Z,1.6
2018-10-06T14:21:16.126Z,1.5
2018-10-06T14:22:15.794Z,1.6
2018-10-06T14:23:15.784Z,1.5
2018-10-06T14:24:16.318Z,1.6
2018-10-06T14:25:15.915Z,1.6
2018-10-06T14:26:15.872Z,1.7
2018-10-06T14:27:16.110Z,1.5
2018-10-06T14:28:16.316Z,1.5
2018-10-06T14:29:16.317Z,1.6
2018-10-06T14:30:15.857Z,1.5
2018-10-06T14:31:16.001Z,1.5
2018-10-06T14:32:16.337Z,1.6
2018-10-06T14:33:15.786Z,1.6
2018-10-06T14:34:17.029Z,1.6
2018-10-06T14:35:15.823Z,1.6
2018-10-06T14:36:16.209Z,1.5
2018-10-06T14:37:15.970Z,1.6
2018-10-06T14:38:16.809Z,1.5
2018-10-06T14:39:16.163Z,1.7
2018-10-06T14:40:16.018Z,1.5
2018-10-06T14:41:15.822Z,1.5
2018-10-06T14:42:16.540Z,1.5
2018-10-06T14:43:15.766Z,1.3
2018-10-06T14:44:44.453Z,1.4
2018-10-06T14:45:16.203Z,1.6
2018-10-06T14:46:16.021Z,1.6
2018-10-06T14:47:16.376Z,1.7
2018-10-06T14:48:16.301Z,1.7
2018-10-06T14:49:16.245Z,1.6
2018-10-06T14:50:16.409Z,1.6
2018-10-06T14:51:16.247Z,1.6
2018-10-06T14:52:16.008Z,1.4
2018-10-06T14:53:16.394Z,1.3
2018-10-06T14:54:16.349Z,1.5
2018-10-06T14:56:29.128Z,1.4
2018-10-06T14:57:29.094Z,1.6
2018-10-06T14:58:29.279Z,1.6
2018-10-06T14:59:28.906Z,1.7
2018-10-06T15:00:29.069Z,1.5
2018-10-06T15:01:28.686Z,1.6
2018-10-06T15:02:29.156Z,1.4
2018-10-06T15:03:29.239Z,1.5
2018-10-06T15:04:29.268Z,1.6
2018-10-06T15:05:28.706Z,1.4
2018-10-06T15:06:56.986Z,1.5
2018-10-06T15:07:28.756Z,1.3
2018-10-06T15:08:29.135Z,1.5
2018-10-06T15:09:29.841Z,1.5
2018-10-06T15:10:29.225Z,1.5
2018-10-06T15:11:29.119Z,1.6
2018-10-06T15:12:28.905Z,1.5
2018-10-06T15:13:28.739Z,1.5
2018-10-06T15:14:28.924Z,1.5
2018-10-06T15:15:28.713Z,1.4
2018-10-06T15:16:29.887Z,1.6
2018-10-06T15:17:28.925Z,1.5
2018-10-06T15:18:29.170Z,1.4
2018-10-06T15:19:29.234Z,1.3
2018-10-06T15:20:29.297Z,1.3
2018-10-06T15:21:33.865Z,1.4
2018-10-06T15:22:28.742Z,1.6
2018-10-06T15:23:28.726Z,1.5
2018-10-06T15:24:29.160Z,1.4